Date,TemperatureHighF,TemperatureAvgF,TemperatureLowF,DewpointHighF,DewpointAvgF,DewpointLowF,HumidityHigh,HumidityAvg,HumidityLow,PressureMaxIn,PressureMinIn,WindSpeedMaxMPH,WindSpeedAvgMPH,GustSpeedMaxMPH,PrecipitationSumIn
2013-8-1,87.9,72.1,57.7,71.6,63.6,56.6,98,77,48,30.02,29.80,11,0,11,0.03
2013-8-2,72.3,66.1,57.6,63.8,59.8,55.6,95,81,65,30.00,29.80,10,0,10,0.32
2013-8-3,79.5,65.7,52.1,58.6,54.5,51.3,98,71,41,30.16,30.00,9,0,9,0.00
2013-8-4,78.3,67.4,56.2,63.7,57.8,50.5,94,73,53,30.18,29.89,14,1,14,0.00
2013-8-5,84.8,74.1,64.6,71.1,65.5,60.4,98,77,46,29.90,29.76,11,1,11,0.00
2013-8-6,86.5,73.9,62.7,68.6,64.6,60.5,98,75,51,29.80,29.66,11,1,11,0.03
2013-8-7,81.8,70.5,59.6,62.7,60.0,57.7,94,71,49,29.94,29.76,8,0,8,0.00
2013-8-8,80.1,68.6,60.3,68.4,62.4,56.4,94,81,65,29.95,29.87,10,1,10,0.06
2013-8-9,80.2,68.7,55.4,64.1,58.2,53.8,99,73,45,30.09,29.95,5,0,7,0.01
2013-8-10,73.8,66.5,58.3,67.2,60.7,54.3,97,82,67,30.12,29.98,10,0,10,0.35
2013-8-11,79.7,69.8,62.3,68.3,64.8,60.9,99,85,65,30.03,29.93,4,0,8,1.11
2013-8-12,79.5,69.0,58.8,64.4,60.7,57.4,99,77,55,30.05,29.97,7,0,7,0.01
2013-8-13,77.9,65.6,54.2,61.4,55.5,47.4,98,73,44,30.13,30.04,8,0,8,0.00
2013-8-14,70.2,62.8,56.1,62.0,56.5,50.8,92,80,71,30.14,30.04,9,0,9,0.00
2013-8-15,66.8,62.6,56.9,61.0,58.9,55.5,97,88,81,30.09,30.01,9,1,9,0.00
2013-8-16,69.5,63.0,55.0,62.0,59.0,54.2,99,87,75,30.13,30.07,12,1,12,0.01
2013-8-17,78.5,68.8,58.8,66.5,61.1,56.5,93,77,61,30.10,30.00,15,2,15,0.00
2013-8-18,79.8,70.1,60.1,66.1,61.3,56.4,88,74,61,30.03,29.91,17,2,17,0.00
2013-8-19,86.7,75.7,64.5,74.1,68.1,61.3,91,78,65,29.95,29.77,13,1,13,0.00
2013-8-20,90.1,78.8,66.7,77.2,72.2,65.5,98,82,55,29.79,29.73,11,1,11,0.00
2013-8-21,82.5,76.3,73.2,74.7,71.5,69.2,94,85,75,29.91,29.72,10,1,10,0.02
2013-8-22,85.2,75.2,65.8,71.6,67.7,64.9,100,79,57,30.01,29.90,9,1,9,0.01
2013-8-23,87.3,76.7,66.7,75.9,69.4,63.5,94,79,63,30.01,29.85,16,2,16,0.00
2013-8-24,89.5,79.2,71.0,78.1,72.8,67.4,95,81,67,29.90,29.79,22,4,22,0.29
2013-8-25,91.7,82.5,75.0,78.6,74.4,70.9,88,77,63,29.88,29.83,17,2,17,0.00
2013-8-26,92.7,83.3,74.9,78.6,73.9,69.0,83,74,61,29.87,29.73,15,2,15,0.00
2013-8-27,95.1,83.9,73.8,78.8,73.2,67.0,91,71,56,29.79,29.69,10,1,10,0.00
2013-8-28,94.3,83.6,75.2,80.9,76.0,70.8,96,79,58,29.88,29.78,12,1,12,0.00
2013-8-29,92.4,82.1,68.3,77.2,72.9,66.3,94,75,55,29.86,29.75,13,1,13,0.00
2013-8-30,87.5,79.7,71.3,75.8,70.9,66.7,95,76,56,29.84,29.76,9,1,9,0.00
2013-8-31,91.3,77.4,64.4,76.0,70.0,63.5,99,80,56,29.80,29.65,27,0,27,0.35